Time;durP1;ratioP1;P1;durP2;ratioP2;P2;SDS_P1;SDS_P2;PMS_P1;PMS_P2;Temp;Humidity;BMP_temperature;BMP_pressure;BME280_temperature;BME280_humidity;BME280_pressure;Samples;Min_cycle;Max_cycle;Signal;HPM_P1;HPM_P2
2022/09/28 00:00:06;;;;;;;2.75;1.20;;;8.00;98.00;;;;;;5035153;28;20086;-67
2022/09/28 00:02:32;;;;;;;5.85;1.50;;;8.10;97.90;;;;;;5035065;28;20716;-66
2022/09/28 00:04:57;;;;;;;3.00;0.95;;;8.00;96.50;;;;;;5035164;28;20026;-66
2022/09/28 00:07:23;;;;;;;3.78;1.20;;;8.10;98.00;;;;;;5034591;28;20049;-67
2022/09/28 00:09:49;;;;;;;7.15;1.42;;;8.10;96.90;;;;;;5033731;28;20540;-67
2022/09/28 00:12:14;;;;;;;5.80;1.40;;;8.10;96.90;;;;;;5034738;28;20029;-67
2022/09/28 00:14:41;;;;;;;3.65;1.13;;;8.10;97.30;;;;;;5021494;28;20167;-66
2022/09/28 00:17:07;;;;;;;5.22;1.30;;;8.10;98.00;;;;;;5035070;28;20021;-66
2022/09/28 00:19:33;;;;;;;5.82;1.20;;;8.10;97.20;;;;;;5035739;28;20083;-66
2022/09/28 00:21:58;;;;;;;5.45;1.50;;;8.10;96.90;;;;;;5033251;28;20037;-66
2022/09/28 00:24:24;;;;;;;6.38;1.35;;;8.20;97.90;;;;;;5033795;28;20026;-67
2022/09/28 00:26:55;;;;;;;6.78;1.50;;;8.30;98.00;;;;;;5035228;28;20132;-67
2022/09/28 00:29:27;;;;;;;8.05;1.30;;;8.30;98.00;;;;;;5034461;28;20021;-67
2022/09/28 00:32:01;;;;;;;4.95;1.33;;;8.30;98.00;;;;;;5032204;28;20037;-68
2022/09/28 00:34:33;;;;;;;6.80;1.65;;;8.30;98.00;;;;;;5032348;28;20094;-67
2022/09/28 00:37:00;;;;;;;6.88;1.73;;;8.30;98.00;;;;;;5031038;28;20079;-67
2022/09/28 00:39:26;;;;;;;5.60;1.42;;;8.30;98.00;;;;;;5036303;28;20021;-67
2022/09/28 00:41:53;;;;;;;8.27;1.80;;;8.30;97.70;;;;;;5029265;28;20022;-67
2022/09/28 00:44:24;;;;;;;6.07;1.52;;;8.20;97.90;;;;;;5032177;28;20025;-67
2022/09/28 00:46:55;;;;;;;5.78;1.35;;;8.20;96.10;;;;;;5030584;28;20033;-66
2022/09/28 00:49:43;;;;;;;3.10;1.20;;;8.10;95.90;;;;;;5033545;28;20477;-67
2022/09/28 00:52:12;;;;;;;7.72;1.50;;;8.10;98.00;;;;;;5027420;28;20034;-67
2022/09/28 00:54:41;;;;;;;6.45;1.50;;;8.20;97.00;;;;;;5033182;28;20434;-66
2022/09/28 00:57:08;;;;;;;5.00;1.35;;;8.20;98.00;;;;;;5034306;28;20034;-67
2022/09/28 00:59:34;;;;;;;5.13;1.60;;;8.20;96.30;;;;;;5035423;28;20083;-66
2022/09/28 01:02:01;;;;;;;6.07;1.70;;;8.20;97.90;;;;;;5034714;28;20033;-67
2022/09/28 01:04:28;;;;;;;6.88;1.50;;;8.20;97.30;;;;;;5033533;28;20099;-67
2022/09/28 01:06:56;;;;;;;8.30;1.55;;;8.10;95.80;;;;;;5031212;28;20065;-66
2022/09/28 01:09:23;;;;;;;5.38;1.58;;;8.20;97.00;;;;;;5031435;28;20112;-66
2022/09/28 01:11:49;;;;;;;6.05;1.67;;;8.20;96.80;;;;;;5034078;28;20363;-67
2022/09/28 01:14:19;;;;;;;7.93;1.92;;;8.20;97.00;;;;;;5028597;28;20108;-66
2022/09/28 01:17:14;;;;;;;9.75;1.88;;;8.30;97.20;;;;;;5032546;28;20314;-67
2022/09/28 01:19:58;;;;;;;;;;;8.30;95.30;;;;;;5029076;28;20502;-67
2022/09/28 01:22:55;;;;;;;9.70;2.63;;;8.20;95.30;;;;;;5024396;28;19932;-67
2022/09/28 01:25:33;;;;;;;10.35;1.50;;;8.30;96.20;;;;;;5009688;28;20037;-67
2022/09/28 01:28:10;;;;;;;11.82;2.03;;;8.20;95.50;;;;;;5030816;28;20036;-67
2022/09/28 01:30:44;;;;;;;7.85;2.45;;;8.30;95.20;;;;;;5033519;28;20109;-67
2022/09/28 01:33:12;;;;;;;;;;;8.30;95.80;;;;;;5031776;28;20028;-67
2022/09/28 01:35:48;;;;;;;8.93;2.17;;;8.30;94.80;;;;;;5022963;28;19945;-67
2022/09/28 01:38:36;;;;;;;7.70;1.75;;;8.30;95.20;;;;;;5022137;28;20034;-66
2022/09/28 01:41:03;;;;;;;11.60;1.73;;;8.30;94.90;;;;;;5031595;28;20021;-66
2022/09/28 01:43:33;;;;;;;5.60;1.88;;;8.30;94.50;;;;;;5040858;28;20311;-66
2022/09/28 01:46:27;;;;;;;7.40;1.70;;;8.20;94.20;;;;;;5027595;28;20547;-68
2022/09/28 01:49:01;;;;;;;7.40;1.83;;;8.20;93.30;;;;;;5018099;28;20044;-68
2022/09/28 01:51:38;;;;;;;6.25;1.70;;;8.20;94.30;;;;;;5022672;28;20105;-68
2022/09/28 01:54:13;;;;;;;6.05;1.90;;;8.30;95.20;;;;;;5030274;28;20136;-68
2022/09/28 01:57:06;;;;;;;7.75;2.28;;;8.30;94.50;;;;;;5031446;28;20055;-68
2022/09/28 01:59:35;;;;;;;7.63;1.92;;;8.30;93.50;;;;;;5032932;28;20083;-68
2022/09/28 02:02:06;;;;;;;8.30;2.58;;;8.30;93.20;;;;;;5030829;28;20453;-67
2022/09/28 02:04:39;;;;;;;9.88;1.88;;;8.30;94.00;;;;;;5032104;28;20022;-68
2022/09/28 02:07:23;;;;;;;7.57;1.70;;;8.30;94.20;;;;;;5032602;28;20021;-67
2022/09/28 02:09:57;;;;;;;8.45;2.20;;;8.30;94.20;;;;;;5031633;28;20441;-67
2022/09/28 02:12:28;;;;;;;5.68;1.50;;;8.40;96.20;;;;;;5031202;28;20038;-68
2022/09/28 02:15:01;;;;;;;8.80;2.33;;;8.40;95.00;;;;;;5032046;28;20029;-67
2022/09/28 02:17:26;;;;;;;4.95;1.48;;;8.40;97.60;;;;;;5031637;28;20036;-67
2022/09/28 02:19:52;;;;;;;6.28;1.50;;;8.40;96.00;;;;;;5029042;28;20410;-67
2022/09/28 02:22:24;;;;;;;6.72;1.88;;;8.40;96.40;;;;;;5024656;28;20355;-67
2022/09/28 02:24:57;;;;;;;7.25;1.88;;;8.40;95.70;;;;;;5021588;28;20314;-67
2022/09/28 02:27:44;;;;;;;6.47;1.55;;;8.40;97.10;;;;;;5023346;28;20422;-67
2022/09/28 02:30:11;;;;;;;8.25;1.70;;;8.40;95.60;;;;;;5024904;28;20068;-67
2022/09/28 02:32:41;;;;;;;7.40;1.55;;;8.40;97.30;;;;;;5026734;28;20036;-67
2022/09/28 02:35:11;;;;;;;7.05;1.50;;;8.50;96.10;;;;;;5029860;28;20044;-67
2022/09/28 02:37:38;;;;;;;7.22;1.63;;;8.40;97.00;;;;;;5022495;28;20037;-67
2022/09/28 02:40:15;;;;;;;4.20;1.30;;;8.40;96.30;;;;;;5028576;28;20096;-67
2022/09/28 02:42:58;;;;;;;4.40;1.40;;;8.30;96.30;;;;;;5033330;28;20024;-67
2022/09/28 02:45:27;;;;;;;4.75;1.48;;;8.30;95.90;;;;;;5031959;28;20029;-66
2022/09/28 02:48:02;;;;;;;3.20;1.10;;;8.40;97.60;;;;;;5026920;28;20029;-66
2022/09/28 02:50:52;;;;;;;5.07;1.27;;;8.40;97.20;;;;;;5027867;28;20022;-67
2022/09/28 02:53:23;;;;;;;3.92;1.55;;;8.30;94.80;;;;;;5019725;28;20033;-66
2022/09/28 02:56:16;;;;;;;8.90;1.48;;;8.20;94.30;;;;;;5030156;28;20025;-67
2022/09/28 02:59:27;;;;;;;4.75;1.30;;;8.20;95.80;;;;;;5026673;28;20033;-66
2022/09/28 03:02:11;;;;;;;2.83;1.10;;;8.30;95.30;;;;;;5028570;28;20049;-66
2022/09/28 03:04:59;;;;;;;3.90;1.00;;;8.20;95.60;;;;;;5026140;28;20046;-66
2022/09/28 03:07:29;;;;;;;3.00;0.93;;;8.20;95.10;;;;;;5031461;28;20115;-66
2022/09/28 03:10:37;;;;;;;3.58;1.00;;;8.30;97.40;;;;;;5025018;28;20017;-65
2022/09/28 03:13:03;;;;;;;2.67;1.02;;;8.30;97.90;;;;;;5022418;28;20037;-66
2022/09/28 03:15:31;;;;;;;2.58;0.90;;;8.30;96.30;;;;;;5032042;28;20108;-66
2022/09/28 03:17:57;;;;;;;1.73;0.88;;;8.30;98.00;;;;;;5030473;28;20418;-66
2022/09/28 03:20:24;;;;;;;2.38;1.02;;;8.30;97.30;;;;;;5035144;28;20379;-66
2022/09/28 03:22:49;;;;;;;2.10;0.88;;;8.30;97.80;;;;;;5031747;28;20021;-66
2022/09/28 03:25:15;;;;;;;2.20;0.88;;;8.30;98.00;;;;;;5027394;28;20044;-67
2022/09/28 03:27:41;;;;;;;1.83;0.80;;;8.40;98.00;;;;;;5031584;28;20028;-66
2022/09/28 03:30:08;;;;;;;1.85;0.88;;;8.50;98.00;;;;;;5037648;28;20151;-66
2022/09/28 03:32:34;;;;;;;2.47;0.90;;;8.50;98.00;;;;;;5030454;28;20113;-65
2022/09/28 03:34:59;;;;;;;1.55;0.80;;;8.70;98.00;;;;;;5047356;28;20454;-65
2022/09/28 03:37:26;;;;;;;1.90;0.70;;;8.70;98.00;;;;;;5039865;28;20046;-65
2022/09/28 03:39:52;;;;;;;1.52;0.68;;;8.80;98.00;;;;;;5037665;28;20029;-66
2022/09/28 03:42:17;;;;;;;1.40;0.80;;;8.80;98.00;;;;;;5035771;28;20018;-66
2022/09/28 03:44:43;;;;;;;1.08;0.70;;;8.80;98.00;;;;;;5037925;28;20025;-66
2022/09/28 03:47:09;;;;;;;1.48;0.80;;;8.80;98.00;;;;;;5032609;28;20025;-66
2022/09/28 03:49:34;;;;;;;2.65;0.90;;;8.80;98.00;;;;;;5032089;28;20029;-66
2022/09/28 03:52:00;;;;;;;1.42;0.70;;;8.80;98.00;;;;;;5033879;28;20111;-66
2022/09/28 03:54:26;;;;;;;0.88;0.60;;;8.90;98.00;;;;;;5027421;28;20147;-66
2022/09/28 03:56:52;;;;;;;1.45;0.70;;;9.00;98.00;;;;;;5034354;28;20021;-65
2022/09/28 03:59:17;;;;;;;1.95;0.80;;;9.10;98.00;;;;;;5037205;28;20433;-66
2022/09/28 04:01:43;;;;;;;1.95;0.70;;;9.10;98.00;;;;;;5034507;28;20029;-66
2022/09/28 04:04:12;;;;;;;1.20;0.60;;;9.10;98.00;;;;;;5033710;28;20087;-66
2022/09/28 04:06:40;;;;;;;0.88;0.60;;;9.20;98.00;;;;;;5036983;28;20040;-66
2022/09/28 04:09:06;;;;;;;1.35;0.70;;;9.20;98.00;;;;;;5035713;28;20029;-66
2022/09/28 04:11:32;;;;;;;0.70;0.60;;;9.20;98.00;;;;;;5033157;28;20028;-66
2022/09/28 04:13:57;;;;;;;0.75;0.60;;;9.20;98.00;;;;;;5031229;28;20374;-66
2022/09/28 04:16:23;;;;;;;1.45;0.85;;;9.30;98.00;;;;;;5030063;28;20311;-66
2022/09/28 04:18:49;;;;;;;0.88;0.73;;;9.30;98.00;;;;;;5033704;28;20020;-66
2022/09/28 04:21:18;;;;;;;1.30;0.85;;;9.40;98.00;;;;;;5029366;28;20434;-66
2022/09/28 04:23:44;;;;;;;2.50;0.80;;;9.30;98.00;;;;;;5030006;28;20433;-66
2022/09/28 04:26:19;;;;;;;1.17;0.70;;;9.10;98.00;;;;;;5017590;28;20026;-66
2022/09/28 04:31:37;;;;;;;1.38;0.70;;;8.90;96.40;;;;;;5029182;28;20037;-66
2022/09/28 04:34:03;;;;;;;4.38;1.10;;;8.80;95.50;;;;;;5030946;28;20091;-66
2022/09/28 04:36:29;;;;;;;2.95;1.30;;;8.70;94.80;;;;;;5027989;28;20057;-66
2022/09/28 04:38:54;;;;;;;2.58;0.90;;;8.60;93.80;;;;;;5030724;28;20026;-66
2022/09/28 04:41:21;;;;;;;0.77;0.60;;;8.60;93.20;;;;;;5019787;28;20327;-67
2022/09/28 04:43:50;;;;;;;3.10;1.00;;;8.60;95.30;;;;;;5033935;28;20072;-67
2022/09/28 04:46:15;;;;;;;2.58;0.85;;;8.70;94.70;;;;;;5042810;28;20051;-67
2022/09/28 04:48:41;;;;;;;3.38;1.08;;;8.60;93.70;;;;;;5029446;28;20083;-67
2022/09/28 04:51:07;;;;;;;2.50;1.00;;;8.60;92.40;;;;;;5028202;28;20079;-67
2022/09/28 04:53:33;;;;;;;2.63;1.00;;;8.50;91.60;;;;;;5025921;28;20028;-67
2022/09/28 04:56:08;;;;;;;2.25;0.98;;;8.50;90.60;;;;;;5031406;28;20033;-67
2022/09/28 04:58:34;;;;;;;1.30;0.80;;;8.50;90.10;;;;;;5024302;28;20160;-67
2022/09/28 05:01:02;;;;;;;2.33;1.10;;;8.50;89.60;;;;;;5027741;28;20318;-67
2022/09/28 05:03:28;;;;;;;2.17;1.05;;;8.50;90.00;;;;;;5029153;28;20049;-66
2022/09/28 05:05:54;;;;;;;4.45;1.20;;;8.50;89.70;;;;;;5025794;28;20426;-66
2022/09/28 05:08:20;;;;;;;2.03;0.90;;;8.50;90.50;;;;;;5029595;28;20395;-66
2022/09/28 05:10:46;;;;;;;2.45;1.02;;;8.60;90.80;;;;;;5035254;28;20037;-66
2022/09/28 05:13:12;;;;;;;4.00;1.75;;;8.60;90.40;;;;;;5037174;28;20061;-66
2022/09/28 05:15:40;;;;;;;3.47;1.20;;;8.60;89.70;;;;;;5024241;28;20026;-66
2022/09/28 05:18:06;;;;;;;2.50;1.15;;;8.50;89.90;;;;;;5036942;28;20036;-66
2022/09/28 05:20:32;;;;;;;3.60;1.40;;;8.50;88.90;;;;;;5034354;28;20025;-66
2022/09/28 05:22:58;;;;;;;2.10;1.20;;;8.50;88.40;;;;;;5034329;28;20049;-66
2022/09/28 05:25:24;;;;;;;3.92;1.52;;;8.50;87.70;;;;;;5029732;28;20052;-66
2022/09/28 05:27:56;;;;;;;3.85;1.33;;;8.50;87.90;;;;;;5034584;28;20021;-66
2022/09/28 05:30:25;;;;;;;3.15;1.50;;;8.60;87.30;;;;;;5037064;28;20323;-66
2022/09/28 05:32:50;;;;;;;4.68;1.80;;;8.60;87.30;;;;;;5027777;28;20108;-66
2022/09/28 05:35:17;;;;;;;3.97;1.90;;;8.50;87.10;;;;;;5035396;28;20403;-66
2022/09/28 05:37:42;;;;;;;3.03;1.67;;;8.60;86.90;;;;;;5032284;28;20091;-66
2022/09/28 05:40:08;;;;;;;7.13;2.00;;;8.60;86.70;;;;;;5026432;28;20322;-66
2022/09/28 05:42:34;;;;;;;3.28;1.83;;;8.60;87.00;;;;;;5035827;28;20025;-66
2022/09/28 05:45:02;;;;;;;3.97;2.28;;;8.60;86.90;;;;;;5029980;28;20033;-66
2022/09/28 05:47:28;;;;;;;10.27;1.90;;;8.60;86.10;;;;;;5035004;28;20065;-66
2022/09/28 05:49:54;;;;;;;4.72;1.73;;;8.50;85.30;;;;;;5034839;28;20041;-67
2022/09/28 05:52:20;;;;;;;4.82;3.22;;;8.50;84.00;;;;;;5036458;28;20124;-67
2022/09/28 05:54:46;;;;;;;6.68;5.05;;;8.50;83.40;;;;;;5033570;28;20056;-66
2022/09/28 05:57:12;;;;;;;8.50;5.43;;;8.40;81.20;;;;;;5036316;28;20415;-67
2022/09/28 05:59:38;;;;;;;7.90;5.50;;;8.30;80.00;;;;;;5034634;28;20463;-67
2022/09/28 06:02:05;;;;;;;7.22;4.13;;;8.30;79.10;;;;;;5033807;28;20026;-67
2022/09/28 06:04:31;;;;;;;6.30;3.30;;;8.30;78.40;;;;;;5036353;28;20049;-66
2022/09/28 06:06:58;;;;;;;4.85;3.15;;;8.30;77.40;;;;;;5035387;28;20021;-67
2022/09/28 06:09:23;;;;;;;7.18;3.70;;;8.20;77.40;;;;;;5034030;28;20060;-67
2022/09/28 06:11:50;;;;;;;8.20;3.70;;;8.20;77.10;;;;;;5033785;28;20048;-66
2022/09/28 06:14:15;;;;;;;9.15;3.08;;;8.20;76.30;;;;;;5035771;28;20033;-67
2022/09/28 06:16:41;;;;;;;6.25;3.20;;;8.20;75.90;;;;;;5030896;28;20033;-66
2022/09/28 06:19:07;;;;;;;5.15;2.97;;;8.20;76.00;;;;;;5030420;28;20361;-67
2022/09/28 06:21:34;;;;;;;6.63;2.92;;;8.20;75.60;;;;;;5034131;28;20033;-66
2022/09/28 06:24:00;;;;;;;5.55;1.73;;;8.20;76.60;;;;;;5031185;28;20021;-66
2022/09/28 06:26:26;;;;;;;3.22;1.75;;;8.20;75.90;;;;;;5043947;28;20036;-67
2022/09/28 06:28:51;;;;;;;3.88;1.38;;;8.20;76.30;;;;;;5029160;28;20026;-66
2022/09/28 06:31:22;;;;;;;5.95;1.25;;;8.20;76.60;;;;;;5032360;28;20318;-67
2022/09/28 06:33:48;;;;;;;4.13;1.40;;;8.20;77.40;;;;;;5037563;28;20049;-67
2022/09/28 06:36:15;;;;;;;4.57;1.88;;;8.20;77.80;;;;;;5029599;28;20077;-67
2022/09/28 06:38:41;;;;;;;5.10;1.50;;;8.20;77.60;;;;;;5030538;28;20030;-66
2022/09/28 06:41:07;;;;;;;3.95;1.50;;;8.20;78.30;;;;;;5034298;28;20025;-67
2022/09/28 06:43:33;;;;;;;2.90;1.50;;;8.20;78.10;;;;;;5027336;28;20415;-67
2022/09/28 06:45:59;;;;;;;4.18;2.05;;;8.20;79.40;;;;;;5033034;28;20138;-67
2022/09/28 06:48:25;;;;;;;6.20;1.58;;;8.20;79.60;;;;;;5035567;28;20101;-67
2022/09/28 06:50:51;;;;;;;2.83;1.15;;;8.20;79.80;;;;;;5024712;28;20120;-66
2022/09/28 06:53:17;;;;;;;3.05;1.25;;;8.30;79.60;;;;;;5024904;28;20030;-66
2022/09/28 06:55:47;;;;;;;3.65;1.45;;;8.30;80.50;;;;;;5032542;28;20057;-67
2022/09/28 06:58:16;;;;;;;2.75;1.35;;;8.30;80.90;;;;;;5035334;28;20068;-66
2022/09/28 07:00:46;;;;;;;6.15;3.13;;;8.30;82.10;;;;;;5033715;28;20437;-66
2022/09/28 07:03:14;;;;;;;5.80;2.35;;;8.30;82.30;;;;;;5034214;28;20099;-66
2022/09/28 07:05:44;;;;;;;5.97;2.72;;;8.30;81.70;;;;;;5035340;28;20071;-66
2022/09/28 07:08:11;;;;;;;8.95;4.65;;;8.40;82.20;;;;;;5035925;28;20028;-66
2022/09/28 07:10:45;;;;;;;7.25;2.22;;;8.40;83.40;;;;;;5032456;28;20028;-67
2022/09/28 07:13:12;;;;;;;5.55;2.65;;;8.40;82.70;;;;;;5034446;28;20038;-66
2022/09/28 07:15:39;;;;;;;13.60;5.00;;;8.40;83.60;;;;;;5035607;28;20036;-66
2022/09/28 07:18:06;;;;;;;9.82;5.10;;;8.50;83.30;;;;;;5035584;28;20425;-66
2022/09/28 07:20:34;;;;;;;7.18;4.07;;;8.60;83.70;;;;;;5033711;28;20034;-66
2022/09/28 07:23:02;;;;;;;6.07;2.53;;;8.60;83.80;;;;;;5035050;28;20021;-66
2022/09/28 07:25:29;;;;;;;10.70;5.53;;;8.70;84.90;;;;;;5034376;28;20345;-66
2022/09/28 07:27:56;;;;;;;5.78;3.50;;;8.80;85.30;;;;;;5034774;28;20026;-65
2022/09/28 07:30:23;;;;;;;5.55;2.55;;;8.80;86.90;;;;;;5033928;28;20360;-65
2022/09/28 07:32:50;;;;;;;7.63;2.78;;;8.80;87.60;;;;;;5031377;28;20369;-65
2022/09/28 07:35:16;;;;;;;5.30;1.92;;;8.80;88.50;;;;;;5034527;28;20029;-67
2022/09/28 07:37:41;;;;;;;6.50;2.60;;;8.70;88.40;;;;;;5032860;28;20095;-67
2022/09/28 07:42:53;;;;;;;8.23;3.70;;;8.70;89.10;;;;;;5034833;28;20441;-67
2022/09/28 07:45:37;;;;;;;5.85;3.00;;;8.60;88.00;;;;;;5035218;28;20030;-66
2022/09/28 07:48:03;;;;;;;6.50;2.85;;;8.70;86.90;;;;;;5034384;28;20037;-67
2022/09/28 07:50:28;;;;;;;5.32;1.75;;;8.70;88.00;;;;;;5035250;28;20037;-66
2022/09/28 07:52:57;;;;;;;7.50;3.10;;;8.70;88.30;;;;;;5035051;28;20025;-66
2022/09/28 07:55:23;;;;;;;9.35;5.25;;;8.60;88.40;;;;;;5032360;28;20087;-66
2022/09/28 07:58:00;;;;;;;6.97;3.00;;;8.60;87.80;;;;;;5033949;28;20025;-66
2022/09/28 08:00:30;;;;;;;7.28;2.60;;;8.60;87.20;;;;;;5034177;28;20037;-66
2022/09/28 08:02:58;;;;;;;7.63;2.65;;;8.60;87.60;;;;;;5037819;28;20371;-66
2022/09/28 08:05:27;;;;;;;6.15;2.50;;;8.60;88.30;;;;;;5037922;28;20034;-66
2022/09/28 08:07:56;;;;;;;7.75;3.50;;;8.60;87.60;;;;;;5039193;28;20318;-66
2022/09/28 08:10:22;;;;;;;6.60;2.53;;;8.60;87.60;;;;;;5037600;28;20025;-66
2022/09/28 08:12:47;;;;;;;6.03;2.38;;;8.70;88.50;;;;;;5037390;28;20029;-66
2022/09/28 08:15:13;;;;;;;11.38;2.90;;;8.70;88.60;;;;;;5038624;28;20034;-66
2022/09/28 08:17:39;;;;;;;7.78;3.00;;;8.70;89.40;;;;;;5038146;28;20021;-66
2022/09/28 08:22:49;;;;;;;;;;;8.60;88.70;;;;;;5037911;28;20041;-66
2022/09/28 08:25:15;;;;;;;7.28;3.70;;;8.60;86.90;;;;;;5037195;28;19948;-66
2022/09/28 08:27:40;;;;;;;9.40;3.80;;;8.60;87.50;;;;;;5038399;28;20138;-66
2022/09/28 08:30:06;;;;;;;8.38;2.75;;;8.60;87.40;;;;;;5038384;28;20040;-66
2022/09/28 08:32:32;;;;;;;7.95;3.35;;;8.60;88.30;;;;;;5037079;28;20017;-66
2022/09/28 08:34:58;;;;;;;10.80;4.32;;;8.60;88.60;;;;;;5036738;28;20414;-66
2022/09/28 08:37:24;;;;;;;9.52;4.35;;;8.60;89.20;;;;;;5037942;28;20049;-66
2022/09/28 08:39:49;;;;;;;8.63;4.07;;;8.60;89.70;;;;;;5036844;28;20322;-66
2022/09/28 08:42:34;;;;;;;9.45;3.30;;;8.60;90.10;;;;;;5035842;28;20091;-66
2022/09/28 08:45:09;;;;;;;7.55;3.33;;;8.60;89.10;;;;;;5037579;28;20084;-66
2022/09/28 08:50:50;;;;;;;9.82;2.75;;;8.60;91.40;;;;;;5026728;28;20038;-66
2022/09/28 08:53:41;;;;;;;7.68;2.85;;;8.70;90.20;;;;;;5037922;28;20136;-66
2022/09/28 08:56:30;;;;;;;11.48;2.92;;;8.80;92.10;;;;;;5034922;28;20017;-65
2022/09/28 08:59:04;;;;;;;8.10;2.92;;;8.70;92.10;;;;;;5036914;28;20061;-66
2022/09/28 09:01:37;;;;;;;5.97;2.65;;;8.70;91.00;;;;;;5036493;28;20033;-66
2022/09/28 09:04:05;;;;;;;8.02;2.42;;;8.70;91.30;;;;;;5037636;28;20034;-66
2022/09/28 09:06:40;;;;;;;8.27;3.00;;;8.80;92.60;;;;;;5036251;28;20025;-66
2022/09/28 09:09:35;;;;;;;9.40;3.08;;;8.60;92.00;;;;;;5035681;28;20040;-66
2022/09/28 09:12:10;;;;;;;9.80;3.47;;;8.70;91.60;;;;;;5043023;28;20076;-66
2022/09/28 09:14:48;;;;;;;8.88;2.90;;;8.60;92.00;;;;;;5036414;28;20067;-66
2022/09/28 09:17:22;;;;;;;8.63;4.32;;;8.60;91.60;;;;;;5034734;28;20036;-66
2022/09/28 09:19:52;;;;;;;12.05;4.22;;;8.70;89.90;;;;;;5036106;28;20021;-66
2022/09/28 09:22:39;;;;;;;19.92;9.48;;;8.80;88.90;;;;;;5035332;28;20028;-66
2022/09/28 09:25:27;;;;;;;11.50;4.85;;;8.80;90.00;;;;;;5036139;28;20049;-66
2022/09/28 09:28:13;;;;;;;11.65;5.57;;;8.70;92.20;;;;;;5037318;28;20028;-66
2022/09/28 09:31:04;;;;;;;10.50;4.25;;;8.60;91.30;;;;;;5035339;28;20017;-66
2022/09/28 09:33:32;;;;;;;12.15;4.15;;;8.60;90.90;;;;;;5035067;28;20041;-66
2022/09/28 09:36:10;;;;;;;10.88;3.47;;;8.60;89.90;;;;;;5036875;28;20048;-66
2022/09/28 09:38:45;;;;;;;15.90;7.85;;;8.70;90.80;;;;;;5036808;28;20030;-66
2022/09/28 09:41:35;;;;;;;20.80;14.52;;;8.80;90.30;;;;;;5035832;28;20026;-66
2022/09/28 09:44:11;;;;;;;21.55;13.55;;;9.00;93.30;;;;;;5035616;28;20100;-65
2022/09/28 09:46:40;;;;;;;20.85;11.35;;;9.10;93.20;;;;;;5035015;28;20035;-66
2022/09/28 09:49:14;;;;;;;14.30;5.68;;;9.10;93.90;;;;;;5036827;28;20055;-66
2022/09/28 09:51:43;;;;;;;15.07;6.43;;;9.20;94.40;;;;;;5035381;28;20034;-66
2022/09/28 09:54:36;;;;;;;12.77;5.75;;;9.20;94.90;;;;;;5022193;28;20029;-65
2022/09/28 09:57:12;;;;;;;25.15;17.35;;;9.20;94.90;;;;;;5034079;28;20152;-66
2022/09/28 09:59:40;;;;;;;10.88;5.18;;;9.30;94.60;;;;;;5036409;28;20049;-66
2022/09/28 10:02:28;;;;;;;12.52;7.97;;;9.50;95.10;;;;;;5034356;28;20039;-66
2022/09/28 10:05:11;;;;;;;8.60;2.40;;;9.50;95.90;;;;;;5036437;28;20018;-66
2022/09/28 10:07:57;;;;;;;11.98;2.95;;;9.50;98.00;;;;;;5036053;28;20112;-66
2022/09/28 10:10:25;;;;;;;8.38;4.15;;;9.50;97.90;;;;;;5034368;28;20033;-66
2022/09/28 10:12:51;;;;;;;7.03;2.22;;;9.60;98.00;;;;;;5036355;28;20053;-66
2022/09/28 10:15:25;;;;;;;5.10;1.90;;;9.60;98.00;;;;;;5035568;28;20025;-66
2022/09/28 10:17:51;;;;;;;20.38;15.07;;;9.80;98.00;;;;;;5035324;28;20037;-65
2022/09/28 10:20:17;;;;;;;6.82;2.20;;;9.90;98.00;;;;;;5034161;28;20025;-65
2022/09/28 10:22:43;;;;;;;8.82;5.47;;;10.00;98.00;;;;;;5036125;28;20411;-65
2022/09/28 10:25:11;;;;;;;7.82;2.47;;;10.20;98.00;;;;;;5034695;28;20033;-65
2022/09/28 10:27:43;;;;;;;9.77;5.93;;;10.20;98.00;;;;;;5035699;28;20054;-65
2022/09/28 10:30:08;;;;;;;7.85;3.08;;;10.20;98.00;;;;;;5035256;28;20033;-67
2022/09/28 10:32:38;;;;;;;6.40;2.67;;;10.30;98.00;;;;;;5035157;28;20051;-68
2022/09/28 10:35:25;;;;;;;7.25;2.00;;;10.30;98.00;;;;;;5035325;28;20335;-67
2022/09/28 10:37:54;;;;;;;8.70;3.10;;;10.40;98.00;;;;;;5036192;28;20116;-66
2022/09/28 10:41:02;;;;;;;6.13;2.15;;;10.60;98.00;;;;;;5034046;28;20183;-66
2022/09/28 10:43:47;;;;;;;11.57;3.63;;;11.00;98.00;;;;;;5015134;28;20113;-67
2022/09/28 10:46:20;;;;;;;7.35;3.00;;;11.20;98.00;;;;;;5022735;28;20017;-66
2022/09/28 10:48:51;;;;;;;6.53;2.72;;;11.30;98.00;;;;;;5050604;28;20103;-66
2022/09/28 10:51:17;;;;;;;8.57;5.03;;;11.20;98.00;;;;;;5033150;28;20074;-66
2022/09/28 10:54:02;;;;;;;7.60;4.22;;;11.10;98.00;;;;;;5034202;28;20363;-66
2022/09/28 10:56:35;;;;;;;8.60;3.97;;;11.10;98.00;;;;;;5035510;28;20122;-67
2022/09/28 10:59:01;;;;;;;9.00;3.67;;;11.30;98.00;;;;;;5034828;28;20219;-64
2022/09/28 11:01:34;;;;;;;7.78;2.33;;;11.30;97.00;;;;;;5034431;28;20974;-65
2022/09/28 11:04:03;;;;;;;8.80;2.95;;;11.20;97.90;;;;;;5034813;28;20032;-65
2022/09/28 11:06:36;;;;;;;7.68;2.65;;;11.20;98.00;;;;;;5035705;28;20026;-65
2022/09/28 11:09:05;;;;;;;9.07;2.57;;;11.20;98.00;;;;;;5034441;28;20029;-65
2022/09/28 11:11:40;;;;;;;13.25;4.05;;;11.40;98.00;;;;;;5035942;28;20253;-65
2022/09/28 11:14:36;;;;;;;8.95;2.10;;;11.70;98.00;;;;;;5034784;28;20053;-65
2022/09/28 11:17:29;;;;;;;5.90;2.22;;;11.50;98.00;;;;;;5034724;28;20060;-66
2022/09/28 11:19:59;;;;;;;8.85;5.60;;;11.50;98.00;;;;;;5034179;28;20129;-65
2022/09/28 11:22:45;;;;;;;5.28;2.03;;;11.30;97.50;;;;;;5034467;28;20033;-65
2022/09/28 11:25:16;;;;;;;5.82;2.88;;;11.00;98.00;;;;;;5033920;28;20025;-65
2022/09/28 11:28:03;;;;;;;7.82;3.63;;;11.00;98.00;;;;;;5033355;28;20045;-65
2022/09/28 11:30:50;;;;;;;8.40;2.78;;;11.10;98.00;;;;;;5034509;28;20151;-65
2022/09/28 11:33:19;;;;;;;6.28;2.40;;;11.00;98.00;;;;;;5035588;28;20377;-65
2022/09/28 11:35:49;;;;;;;9.30;4.25;;;10.90;98.00;;;;;;5036583;28;20049;-65
2022/09/28 11:38:44;;;;;;;7.65;2.83;;;10.90;98.00;;;;;;5038770;28;20037;-65
2022/09/28 11:41:41;;;;;;;6.15;2.40;;;10.90;98.00;;;;;;5037953;28;20020;-65
2022/09/28 11:44:36;;;;;;;9.27;3.28;;;10.80;98.00;;;;;;5039109;28;20105;-65
2022/09/28 11:47:26;;;;;;;7.25;3.17;;;10.90;98.00;;;;;;5038109;28;20029;-65
2022/09/28 11:50:00;;;;;;;10.27;3.30;;;11.10;98.00;;;;;;5038267;28;20029;-65
2022/09/28 11:52:59;;;;;;;6.43;2.90;;;11.20;96.60;;;;;;5039002;28;20499;-66
2022/09/28 11:55:40;;;;;;;8.57;3.65;;;11.10;94.10;;;;;;5037888;28;20108;-65
2022/09/28 11:58:16;;;;;;;28.25;11.00;;;11.20;93.50;;;;;;5038784;28;20076;-65
2022/09/28 12:00:49;;;;;;;10.35;3.72;;;11.30;95.20;;;;;;5034918;28;20017;-65
2022/09/28 12:03:25;;;;;;;10.90;4.80;;;11.40;95.10;;;;;;5037252;28;20053;-65
2022/09/28 12:05:57;;;;;;;8.27;3.80;;;11.50;95.50;;;;;;5036491;28;20033;-66
2022/09/28 12:08:28;;;;;;;6.55;2.58;;;11.50;95.60;;;;;;5037715;28;20041;-65
2022/09/28 12:11:09;;;;;;;5.82;2.00;;;11.50;95.40;;;;;;5037636;28;20021;-66
2022/09/28 12:13:41;;;;;;;6.88;3.35;;;11.20;94.20;;;;;;5038638;28;20025;-66
2022/09/28 12:16:23;;;;;;;9.20;4.25;;;10.80;95.30;;;;;;5037175;28;20330;-66
2022/09/28 12:18:52;;;;;;;7.38;2.40;;;10.50;95.50;;;;;;5018575;28;20060;-66
2022/09/28 12:21:24;;;;;;;5.95;2.80;;;10.30;96.00;;;;;;5018707;28;20030;-65
2022/09/28 12:23:54;;;;;;;7.35;2.67;;;10.10;96.50;;;;;;5027364;28;20025;-65
2022/09/28 12:26:38;;;;;;;8.57;2.95;;;10.00;96.10;;;;;;5038403;28;20052;-65
2022/09/28 12:29:27;;;;;;;11.82;4.00;;;9.90;97.30;;;;;;5037737;28;20108;-65
2022/09/28 12:32:01;;;;;;;6.63;3.47;;;10.00;98.00;;;;;;5036360;28;20025;-65
2022/09/28 12:34:27;;;;;;;8.73;2.95;;;10.20;97.70;;;;;;5037147;28;20492;-65
2022/09/28 12:37:14;;;;;;;6.88;3.28;;;10.40;97.00;;;;;;5037997;28;20045;-65
2022/09/28 12:39:58;;;;;;;6.75;2.53;;;10.50;96.70;;;;;;5037082;28;20096;-66
2022/09/28 12:43:00;;;;;;;7.78;3.10;;;10.70;96.70;;;;;;5038125;28;20033;-66
2022/09/28 12:45:34;;;;;;;8.85;4.03;;;10.70;96.30;;;;;;5027386;28;20046;-65
2022/09/28 12:48:06;;;;;;;;;;;10.60;95.60;;;;;;5036267;28;20033;-66
2022/09/28 12:50:38;;;;;;;8.52;3.58;;;10.50;95.70;;;;;;5038077;28;19905;-66
2022/09/28 12:53:22;;;;;;;8.95;3.65;;;10.60;96.40;;;;;;5036815;28;20026;-65
2022/09/28 12:55:56;;;;;;;8.82;3.40;;;10.70;95.70;;;;;;5036667;28;20099;-65
2022/09/28 12:58:37;;;;;;;8.40;3.47;;;10.70;96.00;;;;;;5037592;28;20029;-65
2022/09/28 13:01:14;;;;;;;6.82;2.83;;;10.80;96.50;;;;;;5035817;28;20156;-65
2022/09/28 13:03:58;;;;;;;7.82;2.40;;;10.90;96.20;;;;;;5037098;28;20026;-65
2022/09/28 13:06:53;;;;;;;12.05;5.22;;;10.90;95.60;;;;;;5037737;28;20021;-65
2022/09/28 13:09:28;;;;;;;10.55;3.72;;;11.10;95.80;;;;;;5036469;28;20448;-65
2022/09/28 13:12:07;;;;;;;9.73;3.50;;;11.10;95.60;;;;;;5036435;28;20037;-65
2022/09/28 13:15:10;;;;;;;8.60;4.22;;;10.90;95.60;;;;;;5036503;28;20057;-65
2022/09/28 13:17:42;;;;;;;11.38;5.78;;;11.00;96.00;;;;;;5034747;28;20070;-64
2022/09/28 13:20:41;;;;;;;12.68;5.40;;;11.10;95.40;;;;;;5035615;28;20238;-63
2022/09/28 13:23:15;;;;;;;6.78;3.50;;;11.10;95.30;;;;;;5037122;28;20021;-64
2022/09/28 13:25:52;;;;;;;9.60;2.83;;;10.90;94.80;;;;;;5035142;28;20078;-66
2022/09/28 13:28:20;;;;;;;10.43;4.65;;;10.70;95.80;;;;;;5035915;28;20036;-67
2022/09/28 13:30:47;;;;;;;8.57;3.40;;;10.70;96.70;;;;;;5036943;28;20426;-67
2022/09/28 13:33:30;;;;;;;7.45;2.75;;;10.80;96.70;;;;;;5037196;28;20029;-67